createdAt,value
2019-05-18T05:11:44.907Z,1002.05
2019-05-18T05:21:45.720Z,1001.93
2019-05-18T05:31:42.923Z,1001.88
2019-05-18T05:41:42.256Z,1001.89
2019-05-18T05:51:44.481Z,1001.91
2019-05-18T06:01:41.799Z,1001.87
2019-05-18T06:11:44.833Z,1001.83
2019-05-18T06:21:42.544Z,1001.86
2019-05-18T06:31:42.407Z,1001.84
2019-05-18T06:41:42.582Z,1001.77
2019-05-18T06:51:42.447Z,1001.84
2019-05-18T07:01:42.522Z,1001.95
2019-05-18T07:11:42.202Z,1001.89
2019-05-18T07:21:42.465Z,1001.93
2019-05-18T07:31:42.437Z,1001.97
2019-05-18T07:41:46.641Z,1001.94
2019-05-18T07:51:42.465Z,1001.94
2019-05-18T08:01:44.798Z,1001.87
2019-05-18T08:11:42.666Z,1001.93
2019-05-18T08:21:52.678Z,1001.85
2019-05-18T08:31:44.901Z,1001.85
2019-05-18T08:41:42.977Z,1001.81
2019-05-18T08:51:42.599Z,1001.73
2019-05-18T09:01:42.343Z,1001.82
2019-05-18T09:11:42.451Z,1001.76
2019-05-18T09:21:42.632Z,1001.71
2019-05-18T09:31:42.706Z,1001.67
2019-05-18T09:41:42.628Z,1001.49
2019-05-18T09:51:42.374Z,1001.60
2019-05-18T10:01:42.654Z,1001.51
2019-05-18T10:11:44.476Z,1001.25
2019-05-18T10:21:42.808Z,1001.47
2019-05-18T10:31:42.687Z,1001.35
2019-05-18T10:41:44.701Z,1001.28
2019-05-18T10:51:42.348Z,1001.14
2019-05-18T11:01:43.986Z,1001.11
2019-05-18T11:11:41.844Z,1000.88
2019-05-18T11:21:41.802Z,1001.10
2019-05-18T11:31:42.179Z,1000.98
2019-05-18T11:41:43.291Z,1000.88
2019-05-18T11:51:41.914Z,1000.86
2019-05-18T12:01:44.243Z,1000.88
2019-05-18T12:11:46.268Z,1001.06
2019-05-18T12:21:42.134Z,1000.99
2019-05-18T12:31:42.252Z,1001.01
2019-05-18T12:41:42.146Z,1001.09
2019-05-18T12:51:41.932Z,1000.90
2019-05-18T13:01:45.800Z,1000.81
2019-05-18T13:11:42.804Z,1000.84
2019-05-18T13:21:41.973Z,1000.82
2019-05-18T13:31:42.014Z,1000.67
2019-05-18T13:41:42.707Z,1000.68
2019-05-18T13:51:44.633Z,1000.56
2019-05-18T14:01:44.846Z,1000.59
2019-05-18T14:11:42.101Z,1000.75
2019-05-18T14:21:42.699Z,1000.59
2019-05-18T14:31:42.339Z,1000.53
2019-05-18T14:41:43.964Z,1000.61
2019-05-18T14:51:43.660Z,1000.53
2019-05-18T15:01:43.997Z,1000.50
2019-05-18T15:11:42.434Z,1000.51
2019-05-18T15:21:42.407Z,1000.33
2019-05-18T15:31:42.271Z,1000.38
2019-05-18T15:41:42.247Z,1000.22
2019-05-18T15:51:42.311Z,1000.27
2019-05-18T16:01:41.992Z,1000.30
2019-05-18T16:11:42.758Z,1000.32
2019-05-18T16:21:42.822Z,1000.23
2019-05-18T16:31:41.153Z,1000.21
2019-05-18T16:41:42.979Z,1000.23
2019-05-18T16:51:44.689Z,1000.19
2019-05-18T17:01:42.819Z,1000.20
2019-05-18T17:11:42.790Z,1000.07
2019-05-18T17:21:43.187Z,1000.14
2019-05-18T17:31:44.599Z,1000.14
2019-05-18T17:41:45.079Z,1000.10
2019-05-18T17:51:42.965Z,1000.27
2019-05-18T18:01:43.160Z,1000.41
2019-05-18T18:11:43.011Z,1000.38
2019-05-18T18:21:42.466Z,1000.45
2019-05-18T18:31:44.893Z,1000.46
2019-05-18T18:41:43.010Z,1000.53
2019-05-18T18:51:43.089Z,1000.53
2019-05-18T19:01:44.177Z,1000.60
